createdAt,value
2023-02-06T00:01:23.667Z,103997.72
2023-02-06T00:03:50.275Z,104100.47
2023-02-06T00:06:17.040Z,103989.72
2023-02-06T00:08:43.929Z,104079.66
2023-02-06T00:11:14.623Z,104062.91
2023-02-06T00:13:41.168Z,104086.91
2023-02-06T00:16:17.149Z,104072.59
2023-02-06T00:18:43.905Z,104082.63
2023-02-06T00:21:10.436Z,104048.84
2023-02-06T00:23:37.018Z,104051.78
2023-02-06T00:26:04.276Z,104082.56
2023-02-06T00:28:30.822Z,104064.56
2023-02-06T00:30:57.552Z,103938.72
2023-02-06T00:33:24.126Z,104068.13
2023-02-06T00:35:50.669Z,104057.75
2023-02-06T00:38:17.189Z,104034.03
2023-02-06T00:40:44.321Z,104065.16
2023-02-06T00:43:10.861Z,104067.03
2023-02-06T00:45:37.428Z,104068.88
2023-02-06T00:48:04.126Z,104091.22
2023-02-06T00:50:30.826Z,103980.19
2023-02-06T00:52:57.330Z,104065.50
2023-02-06T00:55:23.835Z,104078.47
2023-02-06T00:57:50.383Z,104077.22
2023-02-06T01:00:17.018Z,103939.03
2023-02-06T01:02:43.698Z,104031.84
2023-02-06T01:05:10.296Z,104055.00
2023-02-06T01:07:39.336Z,104069.53
2023-02-06T01:10:07.633Z,104053.50
2023-02-06T01:12:35.951Z,103944.03
2023-02-06T01:15:05.681Z,104024.53
2023-02-06T01:17:33.664Z,104067.09
2023-02-06T01:20:00.545Z,104085.91
2023-02-06T01:22:27.494Z,103995.25
2023-02-06T01:24:54.119Z,104080.84
2023-02-06T01:27:20.732Z,104066.13
2023-02-06T01:29:47.269Z,104094.34
2023-02-06T01:32:13.779Z,104077.47
2023-02-06T01:34:40.326Z,103982.78
2023-02-06T01:37:06.833Z,104069.31
2023-02-06T01:39:33.538Z,104056.03
2023-02-06T01:42:00.564Z,104059.91
2023-02-06T01:44:27.391Z,103963.03
2023-02-06T01:46:56.546Z,104064.53
2023-02-06T01:49:37.799Z,104083.81
2023-02-06T01:52:14.854Z,104069.63
2023-02-06T01:54:43.186Z,104067.47
2023-02-06T01:57:13.154Z,104085.53
2023-02-06T01:59:46.364Z,104047.75
2023-02-06T02:02:14.086Z,104067.13
2023-02-06T02:04:41.127Z,104038.00
2023-02-06T02:07:18.735Z,104073.03
2023-02-06T02:09:45.243Z,103980.28
2023-02-06T02:12:12.938Z,104074.97
2023-02-06T02:14:43.080Z,104097.31
2023-02-06T02:17:42.159Z,104106.13
2023-02-06T02:20:41.271Z,104092.03
2023-02-06T02:23:29.645Z,104103.63
2023-02-06T02:26:21.955Z,103987.19
2023-02-06T02:29:20.577Z,104088.59
2023-02-06T02:32:21.313Z,104081.88
2023-02-06T02:35:05.059Z,104069.41
2023-02-06T02:38:03.114Z,104086.06
2023-02-06T02:41:25.397Z,104079.94
2023-02-06T02:44:10.880Z,104048.66
2023-02-06T02:46:48.758Z,104060.69
2023-02-06T02:49:22.511Z,103977.78
2023-02-06T02:51:50.302Z,104062.69
2023-02-06T02:54:17.961Z,103964.09
2023-02-06T02:56:44.690Z,103980.88
2023-02-06T02:59:25.190Z,104055.94
2023-02-06T03:02:12.585Z,104071.03
2023-02-06T03:04:58.514Z,104027.72
2023-02-06T03:07:39.557Z,104058.84
2023-02-06T03:10:23.543Z,104061.00
2023-02-06T03:13:02.020Z,104051.59
2023-02-06T03:15:48.353Z,104063.94
2023-02-06T03:18:23.041Z,104030.78
2023-02-06T03:20:50.926Z,104059.78
2023-02-06T03:23:29.104Z,104031.56
2023-02-06T03:26:00.364Z,103982.41
2023-02-06T03:28:33.248Z,104039.28
2023-02-06T03:31:02.933Z,104058.06
2023-02-06T03:33:36.301Z,104022.63
2023-02-06T03:36:05.095Z,103937.31
2023-02-06T03:38:31.836Z,104052.84
2023-02-06T03:41:01.318Z,104056.84
2023-02-06T03:43:29.590Z,104043.91
2023-02-06T03:46:01.689Z,104057.31
2023-02-06T03:48:34.663Z,104063.63
2023-02-06T03:51:07.097Z,104032.81
2023-02-06T03:53:35.515Z,104053.31
2023-02-06T03:56:08.724Z,104011.53
2023-02-06T03:58:35.442Z,103953.47
2023-02-06T04:01:04.739Z,104053.63
2023-02-06T04:03:32.282Z,103962.88
2023-02-06T04:05:59.374Z,104042.97
2023-02-06T04:08:25.985Z,104033.88
2023-02-06T04:10:52.495Z,104041.09
2023-02-06T04:13:18.982Z,104030.00
2023-02-06T04:15:45.516Z,104069.16
2023-02-06T04:18:12.003Z,104036.41
2023-02-06T04:20:40.972Z,104057.31
2023-02-06T04:23:08.624Z,104061.63
2023-02-06T04:25:35.796Z,104015.81
2023-02-06T04:28:02.567Z,104034.38
2023-02-06T04:30:29.099Z,104075.19
2023-02-06T04:32:55.678Z,104045.25
2023-02-06T04:35:22.278Z,103937.34
2023-02-06T04:37:48.806Z,103956.38
2023-02-06T04:40:15.378Z,104062.25
2023-02-06T04:42:41.850Z,104032.63
2023-02-06T04:45:09.332Z,104063.97
2023-02-06T04:47:35.850Z,104014.31
2023-02-06T04:50:03.546Z,104045.72
2023-02-06T04:52:30.064Z,104030.34
2023-02-06T04:54:56.559Z,104022.94
2023-02-06T04:57:23.687Z,104061.00
2023-02-06T04:59:50.232Z,104056.28
2023-02-06T05:02:16.848Z,104064.63
2023-02-06T05:04:43.370Z,104061.44
2023-02-06T05:07:09.986Z,104066.31
2023-02-06T05:09:36.535Z,103998.25
2023-02-06T05:12:03.160Z,103949.44
2023-02-06T05:14:29.683Z,104069.78
2023-02-06T05:16:56.228Z,104046.16
2023-02-06T05:19:22.754Z,104071.75
2023-02-06T05:21:49.269Z,104047.09
2023-02-06T05:24:15.771Z,104068.81
2023-02-06T05:26:42.327Z,104043.53
2023-02-06T05:29:08.830Z,104069.78
2023-02-06T05:31:35.624Z,104072.56
2023-02-06T05:34:02.228Z,104078.88
2023-02-06T05:36:29.179Z,104095.72
2023-02-06T05:38:55.713Z,104062.28
2023-02-06T05:41:22.281Z,104081.22
2023-02-06T05:43:48.808Z,104082.75
2023-02-06T05:46:15.721Z,104067.00
2023-02-06T05:48:42.332Z,103976.44
2023-02-06T05:51:08.880Z,104060.22
2023-02-06T05:53:35.701Z,103996.56
2023-02-06T05:56:02.263Z,104095.63
2023-02-06T05:58:29.083Z,104074.25
2023-02-06T06:00:55.616Z,104042.88
2023-02-06T06:03:22.229Z,103899.28
2023-02-06T06:05:48.837Z,104080.72
2023-02-06T06:08:15.806Z,104037.81
2023-02-06T06:10:42.336Z,103949.84
2023-02-06T06:13:08.866Z,104048.78
2023-02-06T06:15:35.734Z,103951.78
2023-02-06T06:18:02.505Z,104077.25
2023-02-06T06:20:29.198Z,104061.81
2023-02-06T06:22:55.702Z,104052.72
2023-02-06T06:25:22.208Z,103969.44
2023-02-06T06:27:48.864Z,104070.50
2023-02-06T06:30:15.439Z,104056.44
2023-02-06T06:32:41.934Z,104062.97
2023-02-06T06:35:09.030Z,104075.84
2023-02-06T06:37:35.787Z,104040.81
2023-02-06T06:40:02.567Z,104097.03
2023-02-06T06:42:29.242Z,104065.28
2023-02-06T06:44:55.756Z,103923.19
2023-02-06T06:47:22.270Z,104050.63
2023-02-06T06:49:48.771Z,103967.06
2023-02-06T06:52:24.534Z,104048.50
2023-02-06T06:54:52.847Z,104065.06
2023-02-06T06:57:20.320Z,104035.00
2023-02-06T06:59:46.839Z,104053.53
2023-02-06T07:02:14.034Z,104056.03
2023-02-06T07:04:40.507Z,104022.13
2023-02-06T07:07:07.135Z,104023.38
2023-02-06T07:09:34.036Z,104017.09
2023-02-06T07:12:00.609Z,104014.47
2023-02-06T07:14:27.108Z,104023.59
2023-02-06T07:16:53.624Z,104007.91
2023-02-06T07:19:21.261Z,104041.34
2023-02-06T07:21:47.720Z,104009.63
2023-02-06T07:24:14.238Z,103989.44
2023-02-06T07:26:41.537Z,103989.31
2023-02-06T07:29:08.112Z,104021.38
2023-02-06T07:31:34.633Z,103903.06
2023-02-06T07:34:02.300Z,104031.13
2023-02-06T07:36:29.026Z,104004.44
2023-02-06T07:38:55.657Z,103923.72
2023-02-06T07:41:22.166Z,103998.13
2023-02-06T07:43:48.777Z,103989.03
2023-02-06T07:46:15.449Z,103929.75
2023-02-06T07:48:42.499Z,104008.16
2023-02-06T07:51:09.460Z,104008.44
2023-02-06T07:53:36.649Z,103981.00
2023-02-06T07:56:13.731Z,104005.06
2023-02-06T07:58:40.773Z,103926.16
2023-02-06T08:01:07.833Z,103998.53
2023-02-06T08:03:35.317Z,104013.63
2023-02-06T08:06:08.067Z,103855.94
2023-02-06T08:08:34.510Z,104004.94
2023-02-06T08:11:05.549Z,103991.66
2023-02-06T08:13:32.146Z,103963.56
2023-02-06T08:15:58.675Z,103956.47
2023-02-06T08:18:25.244Z,103958.44
2023-02-06T08:20:51.926Z,103961.31
2023-02-06T08:23:20.833Z,103983.09
2023-02-06T08:25:53.391Z,103859.56
2023-02-06T08:28:20.841Z,103964.91
2023-02-06T08:31:02.638Z,103928.69
2023-02-06T08:33:29.249Z,103959.84
2023-02-06T08:35:57.100Z,103965.09
2023-02-06T08:38:24.005Z,103948.47
2023-02-06T08:40:50.553Z,103941.16
2023-02-06T08:43:17.015Z,103959.41
2023-02-06T08:45:48.724Z,103922.41
2023-02-06T08:48:15.648Z,103920.66
2023-02-06T08:50:43.320Z,103957.47
2023-02-06T08:53:10.437Z,103924.28
2023-02-06T08:55:37.554Z,103948.72
2023-02-06T08:58:04.764Z,103839.81
2023-02-06T09:00:31.312Z,103927.97
2023-02-06T09:02:57.891Z,103959.75
2023-02-06T09:05:24.497Z,103961.34
2023-02-06T09:07:51.006Z,103861.00
2023-02-06T09:10:27.115Z,103975.28
2023-02-06T09:12:54.877Z,103959.22
2023-02-06T09:15:21.506Z,103980.81
2023-02-06T09:17:48.105Z,103962.09
2023-02-06T09:20:14.665Z,103960.25
2023-02-06T09:22:41.167Z,103991.84
2023-02-06T09:25:07.894Z,103975.75
2023-02-06T09:27:34.466Z,103878.91
2023-02-06T09:30:01.046Z,103981.19
2023-02-06T09:32:27.541Z,103895.59
2023-02-06T09:34:54.095Z,103886.53
2023-02-06T09:37:21.376Z,103923.25
2023-02-06T09:39:47.877Z,103958.75
2023-02-06T09:42:41.288Z,103986.50
2023-02-06T09:45:18.705Z,103987.03
2023-02-06T09:47:49.652Z,103956.66
2023-02-06T09:50:16.090Z,103981.53
2023-02-06T09:53:01.631Z,103951.16
2023-02-06T09:55:31.082Z,103985.44
2023-02-06T09:58:09.886Z,103985.91
2023-02-06T10:00:52.054Z,103990.28
2023-02-06T10:03:50.967Z,103984.75
2023-02-06T10:06:22.264Z,103985.44
2023-02-06T10:08:48.783Z,103995.84
2023-02-06T10:11:56.399Z,103990.91
2023-02-06T10:14:50.850Z,103994.28
2023-02-06T10:17:35.513Z,103985.78
2023-02-06T10:20:36.112Z,103977.63
2023-02-06T10:23:27.257Z,104003.66
2023-02-06T10:26:12.460Z,104011.66
2023-02-06T10:28:40.663Z,104012.78
2023-02-06T10:31:26.213Z,104011.69
2023-02-06T10:34:16.681Z,104007.78
2023-02-06T10:37:24.208Z,103980.66
2023-02-06T10:40:32.635Z,103989.34
2023-02-06T10:43:07.677Z,103984.31
2023-02-06T10:45:43.407Z,103984.38
2023-02-06T10:48:16.024Z,103920.78
2023-02-06T10:50:47.666Z,103987.31
2023-02-06T10:53:41.668Z,103964.84
2023-02-06T10:56:12.646Z,103973.03
2023-02-06T10:59:11.749Z,104004.78
2023-02-06T11:01:40.804Z,103898.81
2023-02-06T11:04:17.577Z,104007.78
2023-02-06T11:06:46.732Z,103982.25
2023-02-06T11:09:14.653Z,103965.63
2023-02-06T11:11:51.273Z,103952.41
2023-02-06T11:14:26.169Z,103969.44
2023-02-06T11:16:53.608Z,103971.28
2023-02-06T11:19:27.206Z,103958.09
2023-02-06T11:21:55.457Z,103988.34
2023-02-06T11:24:24.975Z,103988.06
2023-02-06T11:26:56.997Z,103953.50
2023-02-06T11:29:31.673Z,103868.53
2023-02-06T11:32:01.174Z,103949.56
2023-02-06T11:34:30.081Z,103985.53
2023-02-06T11:37:01.036Z,103971.88
2023-02-06T11:39:36.942Z,103914.72
2023-02-06T11:42:04.895Z,103944.03
2023-02-06T11:44:40.751Z,103974.72
2023-02-06T11:47:29.308Z,103975.63
2023-02-06T11:50:15.044Z,103945.00
2023-02-06T11:52:46.656Z,103956.91
2023-02-06T11:55:28.818Z,103967.72
2023-02-06T11:58:24.778Z,103955.69
2023-02-06T12:00:56.499Z,103958.34
2023-02-06T12:03:32.658Z,103872.53
2023-02-06T12:06:05.657Z,103913.81
2023-02-06T12:08:43.774Z,103930.31
2023-02-06T12:11:35.302Z,103910.06
2023-02-06T12:14:09.246Z,103894.13
2023-02-06T12:16:39.669Z,103846.69
2023-02-06T12:19:13.913Z,103868.38
2023-02-06T12:21:49.498Z,103881.28
2023-02-06T12:24:36.005Z,103908.13
2023-02-06T12:27:11.720Z,103816.69
2023-02-06T12:29:43.618Z,103811.22
2023-02-06T12:32:24.136Z,103907.63
2023-02-06T12:35:00.168Z,103903.13
2023-02-06T12:37:41.091Z,103916.00
2023-02-06T12:40:29.394Z,103904.78
2023-02-06T12:43:07.263Z,103897.44
2023-02-06T12:45:56.295Z,103920.19
2023-02-06T12:48:35.700Z,103813.28
2023-02-06T12:51:16.232Z,103902.50
2023-02-06T12:53:50.404Z,103908.19
2023-02-06T12:56:31.849Z,103845.75
2023-02-06T12:59:20.479Z,103884.72
2023-02-06T13:02:00.526Z,103804.28
2023-02-06T13:04:32.389Z,103880.81
2023-02-06T13:07:13.348Z,103830.88
2023-02-06T13:09:53.557Z,103764.84
2023-02-06T13:12:24.403Z,103868.06
2023-02-06T13:14:56.548Z,103862.13
2023-02-06T13:17:31.846Z,103834.97
2023-02-06T13:20:26.264Z,103766.78
2023-02-06T13:23:14.483Z,103818.59
2023-02-06T13:25:41.005Z,103867.13
2023-02-06T13:28:23.004Z,103815.66
2023-02-06T13:31:00.659Z,103846.25
2023-02-06T13:33:39.172Z,103856.56
2023-02-06T13:36:16.992Z,103780.16
2023-02-06T13:38:43.672Z,103847.72
2023-02-06T13:41:16.067Z,103863.56
2023-02-06T13:43:51.514Z,103872.97
2023-02-06T13:46:21.761Z,103765.47
2023-02-06T13:49:10.955Z,103854.91
2023-02-06T13:52:14.128Z,103859.41
2023-02-06T13:54:52.304Z,103850.16
2023-02-06T13:57:54.831Z,103780.06
2023-02-06T14:00:28.885Z,103748.50
2023-02-06T14:03:13.241Z,103717.38
2023-02-06T14:05:57.951Z,103821.66
2023-02-06T14:08:43.774Z,103829.56
2023-02-06T14:11:30.868Z,103834.97
2023-02-06T14:14:21.664Z,103833.59
2023-02-06T14:17:18.881Z,103838.50
2023-02-06T14:19:57.638Z,103852.84
2023-02-06T14:22:30.241Z,103838.50
2023-02-06T14:25:04.525Z,103839.53
2023-02-06T14:28:08.935Z,103840.06
2023-02-06T14:30:50.683Z,103703.41
2023-02-06T14:33:45.089Z,103841.56
2023-02-06T14:36:17.738Z,103838.31
2023-02-06T14:38:44.129Z,103845.16
2023-02-06T14:41:11.057Z,103812.34
2023-02-06T14:43:42.801Z,103843.13
2023-02-06T14:46:14.563Z,103826.25
2023-02-06T14:48:49.480Z,103848.16
2023-02-06T14:51:22.927Z,103827.75
2023-02-06T14:53:56.440Z,103840.44
2023-02-06T14:56:29.700Z,103857.38
2023-02-06T14:58:56.501Z,103862.69
2023-02-06T15:01:30.277Z,103824.25
2023-02-06T15:04:10.789Z,103779.84
2023-02-06T15:06:40.871Z,103826.16
2023-02-06T15:09:07.663Z,103747.03
2023-02-06T15:11:34.746Z,103836.53
2023-02-06T15:14:05.072Z,103807.97
2023-02-06T15:16:45.608Z,103837.09
2023-02-06T15:19:24.557Z,103758.63
2023-02-06T15:21:57.752Z,103822.97
2023-02-06T15:24:32.669Z,103856.31
2023-02-06T15:27:05.328Z,103857.44
2023-02-06T15:29:31.837Z,103850.56
2023-02-06T15:32:03.945Z,103792.06
2023-02-06T15:34:31.134Z,103816.31
2023-02-06T15:36:57.752Z,103795.09
2023-02-06T15:39:25.245Z,103721.00
2023-02-06T15:41:58.051Z,103793.50
2023-02-06T15:44:31.066Z,103813.84
2023-02-06T15:46:58.292Z,103801.44
2023-02-06T15:49:43.266Z,103837.66
2023-02-06T15:52:12.568Z,103827.31
2023-02-06T15:54:42.511Z,103800.31
2023-02-06T15:57:33.464Z,103837.78
2023-02-06T16:00:01.033Z,103813.66
2023-02-06T16:02:35.058Z,103759.63
2023-02-06T16:05:02.844Z,103660.03
2023-02-06T16:07:32.345Z,103731.03
2023-02-06T16:10:08.217Z,103826.34
2023-02-06T16:12:37.549Z,103767.16
2023-02-06T16:15:28.676Z,103786.06
2023-02-06T16:17:56.834Z,103732.63
2023-02-06T16:20:40.883Z,103748.25
2023-02-06T16:23:26.947Z,103717.72
2023-02-06T16:26:27.057Z,103774.22
2023-02-06T16:29:14.671Z,103819.53
2023-02-06T16:31:44.176Z,103832.47
2023-02-06T16:34:21.048Z,103829.34
2023-02-06T16:36:48.579Z,103774.41
2023-02-06T16:39:15.220Z,103820.06
2023-02-06T16:41:42.693Z,103820.59
2023-02-06T16:44:15.506Z,103839.53
2023-02-06T16:46:42.226Z,103824.13
2023-02-06T16:49:21.910Z,103846.06
2023-02-06T16:51:51.098Z,103856.03
2023-02-06T16:54:31.908Z,103794.53
2023-02-06T16:57:16.574Z,103840.31
2023-02-06T16:59:43.265Z,103814.19
2023-02-06T17:02:12.075Z,103852.44
2023-02-06T17:04:38.772Z,103799.97
2023-02-06T17:07:10.698Z,103832.69
2023-02-06T17:09:37.339Z,103821.03
2023-02-06T17:12:03.977Z,103799.34
2023-02-06T17:14:31.443Z,103812.75
2023-02-06T17:16:58.069Z,103736.06
2023-02-06T17:19:25.391Z,103814.50
2023-02-06T17:21:51.916Z,103708.25
2023-02-06T17:24:18.437Z,103845.13
2023-02-06T17:26:44.965Z,103824.47
2023-02-06T17:29:14.276Z,103832.31
2023-02-06T17:31:40.965Z,103830.03
2023-02-06T17:34:07.679Z,103813.47
2023-02-06T17:36:39.525Z,103816.41
2023-02-06T17:39:07.030Z,103826.88
2023-02-06T17:41:33.607Z,103705.59
2023-02-06T17:44:00.349Z,103844.31
2023-02-06T17:46:26.946Z,103834.97
2023-02-06T17:48:53.653Z,103805.16
2023-02-06T17:51:20.227Z,103843.16
2023-02-06T17:53:47.311Z,103815.06
2023-02-06T17:56:13.979Z,103842.03
2023-02-06T17:58:41.862Z,103866.53
2023-02-06T18:01:13.374Z,103806.53
2023-02-06T18:03:40.909Z,103838.66
2023-02-06T18:06:08.671Z,103794.69
2023-02-06T18:08:35.399Z,103822.66
2023-02-06T18:11:11.452Z,103791.78
2023-02-06T18:13:39.553Z,103850.06
2023-02-06T18:16:07.372Z,103683.66
2023-02-06T18:18:33.999Z,103822.41
2023-02-06T18:21:01.080Z,103788.41
2023-02-06T18:23:27.685Z,103791.66
2023-02-06T18:25:54.411Z,103847.38
2023-02-06T18:28:21.128Z,103704.91
2023-02-06T18:30:47.807Z,103835.81
2023-02-06T18:33:14.490Z,103813.19
2023-02-06T18:35:44.890Z,103840.59
2023-02-06T18:38:13.092Z,103730.44
2023-02-06T18:40:41.427Z,103713.06
2023-02-06T18:43:08.487Z,103788.88
2023-02-06T18:45:38.427Z,103800.44
2023-02-06T18:48:07.431Z,103832.91
2023-02-06T18:50:35.391Z,103831.38
2023-02-06T18:53:02.071Z,103801.81
2023-02-06T18:55:28.743Z,103798.28
2023-02-06T18:57:55.429Z,103790.91
2023-02-06T19:00:23.965Z,103803.34
2023-02-06T19:02:50.779Z,103811.38
2023-02-06T19:05:18.470Z,103671.06
2023-02-06T19:07:49.764Z,103784.28
2023-02-06T19:10:19.010Z,103816.28
2023-02-06T19:12:46.346Z,103785.94
2023-02-06T19:15:14.845Z,103780.72
2023-02-06T19:17:42.008Z,103810.25
2023-02-06T19:20:10.332Z,103806.72
2023-02-06T19:22:38.264Z,103757.16
2023-02-06T19:25:14.001Z,103809.03
2023-02-06T19:28:38.291Z,103781.19
2023-02-06T19:31:06.918Z,103806.25
2023-02-06T19:33:35.814Z,103700.22
2023-02-06T19:36:13.981Z,103795.00
2023-02-06T19:38:41.644Z,103759.44
2023-02-06T19:41:16.556Z,103786.06
2023-02-06T19:43:43.161Z,103799.91
2023-02-06T19:46:12.734Z,103798.03
2023-02-06T19:48:44.068Z,103742.34
2023-02-06T19:51:16.233Z,103715.72
2023-02-06T19:53:45.652Z,103790.97
2023-02-06T19:56:14.017Z,103796.81
2023-02-06T19:58:41.582Z,103826.06
2023-02-06T20:01:09.926Z,103807.75
2023-02-06T20:03:36.901Z,103825.59
2023-02-06T20:06:06.222Z,103796.81
2023-02-06T20:08:33.551Z,103808.38
2023-02-06T20:11:08.080Z,103841.47
2023-02-06T20:13:35.730Z,103820.56
2023-02-06T20:16:03.794Z,103836.44
2023-02-06T20:18:31.478Z,103723.63
2023-02-06T20:20:58.158Z,103819.97
2023-02-06T20:23:24.916Z,103811.34
2023-02-06T20:25:52.244Z,103813.50
2023-02-06T20:28:19.348Z,103821.81
2023-02-06T20:30:45.944Z,103815.53
2023-02-06T20:33:12.588Z,103797.34
2023-02-06T20:35:40.559Z,103749.50
2023-02-06T20:38:07.407Z,103806.13
2023-02-06T20:40:34.269Z,103824.25
2023-02-06T20:43:00.954Z,103792.84
2023-02-06T20:45:27.448Z,103781.75
2023-02-06T20:47:54.043Z,103644.59
2023-02-06T20:50:20.686Z,103791.53
2023-02-06T20:52:47.308Z,103806.28
2023-02-06T20:55:13.924Z,103725.06
2023-02-06T20:57:41.118Z,103782.50
2023-02-06T21:00:08.540Z,103791.78
2023-02-06T21:02:36.498Z,103801.94
2023-02-06T21:05:03.128Z,103737.16
2023-02-06T21:07:30.275Z,103741.00
2023-02-06T21:09:56.786Z,103784.44
2023-02-06T21:12:23.419Z,103798.91
2023-02-06T21:14:50.012Z,103774.94
2023-02-06T21:17:16.660Z,103819.44
2023-02-06T21:19:43.166Z,103801.72
2023-02-06T21:22:09.677Z,103789.25
2023-02-06T21:24:36.245Z,103798.63
2023-02-06T21:27:02.914Z,103818.13
2023-02-06T21:29:29.540Z,103804.16
2023-02-06T21:32:12.243Z,103788.31
2023-02-06T21:34:40.449Z,103771.06
2023-02-06T21:37:07.055Z,103818.81
2023-02-06T21:39:34.114Z,103662.16
2023-02-06T21:42:01.604Z,103813.75
2023-02-06T21:44:28.879Z,103799.50
2023-02-06T21:46:56.003Z,103802.91
2023-02-06T21:49:24.045Z,103808.78
2023-02-06T21:51:51.076Z,103809.47
2023-02-06T21:54:18.143Z,103792.25
2023-02-06T21:56:44.833Z,103697.03
2023-02-06T21:59:12.380Z,103673.84
2023-02-06T22:01:41.113Z,103774.41
2023-02-06T22:04:09.144Z,103749.19
2023-02-06T22:06:39.174Z,103696.75
2023-02-06T22:09:08.999Z,103698.91
2023-02-06T22:11:38.017Z,103774.53
2023-02-06T22:14:07.691Z,103773.47
2023-02-06T22:16:34.810Z,103677.03
2023-02-06T22:19:01.543Z,103752.84
2023-02-06T22:21:30.339Z,103764.38
2023-02-06T22:23:59.406Z,103733.47
2023-02-06T22:26:27.396Z,103774.69
2023-02-06T22:28:54.088Z,103759.78
2023-02-06T22:31:23.269Z,103658.44
2023-02-06T22:33:50.845Z,103776.72
2023-02-06T22:36:20.480Z,103761.47
2023-02-06T22:38:48.417Z,103784.41
2023-02-06T22:41:16.498Z,103747.78
2023-02-06T22:43:44.905Z,103737.47
2023-02-06T22:46:20.269Z,103756.56
2023-02-06T22:48:47.528Z,103785.34
2023-02-06T22:51:14.221Z,103763.50
2023-02-06T22:53:41.001Z,103677.50
2023-02-06T22:56:27.211Z,103799.03
2023-02-06T22:58:56.252Z,103773.78
2023-02-06T23:01:29.068Z,103692.25
2023-02-06T23:03:57.596Z,103741.75
2023-02-06T23:06:25.942Z,103748.03
2023-02-06T23:08:52.631Z,103764.94
2023-02-06T23:11:19.434Z,103768.31
2023-02-06T23:13:46.107Z,103785.81
2023-02-06T23:16:12.852Z,103781.31
2023-02-06T23:18:39.444Z,103790.03
2023-02-06T23:21:10.268Z,103812.91
2023-02-06T23:23:38.000Z,103719.22
2023-02-06T23:26:10.108Z,103818.31
2023-02-06T23:28:37.994Z,103790.75
2023-02-06T23:31:05.708Z,103786.03
2023-02-06T23:33:32.727Z,103707.47
2023-02-06T23:36:08.512Z,103795.84
2023-02-06T23:38:35.158Z,103722.97
2023-02-06T23:41:11.073Z,103723.56
2023-02-06T23:43:38.823Z,103700.91
2023-02-06T23:46:06.712Z,103780.47
2023-02-06T23:48:35.180Z,103812.50
2023-02-06T23:51:02.375Z,103812.16
2023-02-06T23:53:29.010Z,103802.69
2023-02-06T23:55:55.898Z,103745.38
2023-02-06T23:58:22.574Z,103786.03
